BAW788 EGLL-ESGG
Flight info
| Callsign | BAW788 |
|---|---|
| Flight time | N/A |
| Altitude | 37000 |
| Route | BPK Q295 PAAVO M604 GIVPO DCT LARGA DCT SOPTO DCT AAL N607 MAKUR |
| Aircraft | A320/M-SDE3FGHIRWY/LB1 |
Departure
| Time | N/A |
|---|---|
| Airport | London Heathrow Airport (EGLL) |
Arrival
| Time | 2026-05-07 16:16 |
|---|---|
| Airport | Göteborg Landvetter Airport (ESGG) |
| Time | Latitude | Longitude | Altitude | Speed | Heading |
|---|---|---|---|---|---|
| 2026-05-07 15:55 | 57.00797 | 9.70126 | 36703 ft | 460 kts | 58° |
| 2026-05-07 15:55 | 57.02460 | 9.75217 | 36439 ft | 460 kts | 57° |
| 2026-05-07 15:55 | 57.04102 | 9.80248 | 36180 ft | 459 kts | 57° |
| 2026-05-07 15:55 | 57.05746 | 9.85289 | 35516 ft | 461 kts | 57° |
| 2026-05-07 15:56 | 57.07396 | 9.90362 | 34698 ft | 464 kts | 57° |
| 2026-05-07 15:56 | 57.09059 | 9.95486 | 33768 ft | 468 kts | 57° |
| 2026-05-07 15:56 | 57.10648 | 10.00709 | 32863 ft | 470 kts | 63° |
| 2026-05-07 15:56 | 57.11979 | 10.06204 | 32119 ft | 468 kts | 64° |
| 2026-05-07 15:57 | 57.13276 | 10.11651 | 31620 ft | 462 kts | 64° |
| 2026-05-07 15:57 | 57.14554 | 10.17056 | 31044 ft | 458 kts | 65° |
| 2026-05-07 15:57 | 57.15817 | 10.22422 | 30482 ft | 455 kts | 65° |
| 2026-05-07 15:57 | 57.17068 | 10.27752 | 29872 ft | 452 kts | 65° |
| 2026-05-07 15:58 | 57.18309 | 10.33043 | 29309 ft | 447 kts | 65° |
| 2026-05-07 15:58 | 57.19534 | 10.38272 | 28748 ft | 442 kts | 65° |
| 2026-05-07 15:58 | 57.20748 | 10.43452 | 28200 ft | 438 kts | 65° |
| 2026-05-07 15:58 | 57.21952 | 10.48583 | 27653 ft | 434 kts | 65° |
| 2026-05-07 15:59 | 57.23142 | 10.53679 | 27112 ft | 430 kts | 65° |
| 2026-05-07 15:59 | 57.24318 | 10.58735 | 26576 ft | 427 kts | 65° |
| 2026-05-07 15:59 | 57.25482 | 10.63757 | 26050 ft | 424 kts | 65° |
| 2026-05-07 15:59 | 57.26635 | 10.68748 | 25534 ft | 421 kts | 65° |
| 2026-05-07 16:00 | 57.27782 | 10.73709 | 25045 ft | 419 kts | 65° |
| 2026-05-07 16:00 | 57.28922 | 10.78648 | 24551 ft | 417 kts | 65° |
| 2026-05-07 16:00 | 57.30056 | 10.83565 | 24086 ft | 415 kts | 65° |
| 2026-05-07 16:00 | 57.31181 | 10.88463 | 23596 ft | 413 kts | 65° |
| 2026-05-07 16:01 | 57.32294 | 10.93340 | 23098 ft | 410 kts | 65° |
| 2026-05-07 16:01 | 57.33397 | 10.98183 | 22643 ft | 407 kts | 66° |
| 2026-05-07 16:01 | 57.34491 | 11.02999 | 22185 ft | 404 kts | 66° |
| 2026-05-07 16:01 | 57.35575 | 11.07767 | 21725 ft | 401 kts | 66° |
| 2026-05-07 16:02 | 57.36649 | 11.12505 | 21261 ft | 398 kts | 66° |
| 2026-05-07 16:02 | 57.37714 | 11.17220 | 20790 ft | 395 kts | 66° |
| 2026-05-07 16:02 | 57.38781 | 11.21958 | 20304 ft | 392 kts | 66° |
| 2026-05-07 16:02 | 57.39829 | 11.26620 | 19810 ft | 390 kts | 66° |
| 2026-05-07 16:03 | 57.40866 | 11.31249 | 19320 ft | 388 kts | 66° |
| 2026-05-07 16:03 | 57.41896 | 11.35867 | 18824 ft | 386 kts | 66° |
| 2026-05-07 16:03 | 57.42919 | 11.40452 | 18308 ft | 384 kts | 66° |
| 2026-05-07 16:03 | 57.43938 | 11.45017 | 17767 ft | 381 kts | 66° |
| 2026-05-07 16:04 | 57.44984 | 11.49510 | 17077 ft | 380 kts | 61° |
| 2026-05-07 16:04 | 57.46561 | 11.53479 | 16195 ft | 384 kts | 45° |
| 2026-05-07 16:04 | 57.48388 | 11.57071 | 15673 ft | 380 kts | 45° |
| 2026-05-07 16:04 | 57.49579 | 11.59436 | 15308 ft | 378 kts | 45° |
| 2026-05-07 16:05 | 57.51366 | 11.63008 | 14789 ft | 375 kts | 45° |
| 2026-05-07 16:05 | 57.53128 | 11.66551 | 14250 ft | 372 kts | 45° |
| 2026-05-07 16:05 | 57.54874 | 11.70071 | 13701 ft | 369 kts | 45° |
| 2026-05-07 16:06 | 57.55595 | 11.71533 | 13462 ft | 367 kts | 46° |
| 2026-05-07 16:06 | 57.57317 | 11.75023 | 12873 ft | 364 kts | 46° |
| 2026-05-07 16:06 | 57.59054 | 11.78516 | 12294 ft | 360 kts | 45° |
| 2026-05-07 16:06 | 57.60752 | 11.81922 | 11716 ft | 357 kts | 46° |
| 2026-05-07 16:07 | 57.62435 | 11.85303 | 11179 ft | 354 kts | 46° |
| 2026-05-07 16:07 | 57.64103 | 11.88664 | 10649 ft | 351 kts | 46° |
| 2026-05-07 16:07 | 57.65755 | 11.92003 | 10131 ft | 349 kts | 46° |
| 2026-05-07 16:07 | 57.67391 | 11.95320 | 9567 ft | 346 kts | 46° |
| 2026-05-07 16:08 | 57.68998 | 11.98578 | 9341 ft | 334 kts | 46° |
| 2026-05-07 16:08 | 57.70543 | 12.01712 | 9203 ft | 321 kts | 46° |
| 2026-05-07 16:08 | 57.72025 | 12.04720 | 9063 ft | 309 kts | 46° |
| 2026-05-07 16:08 | 57.73456 | 12.07627 | 8929 ft | 298 kts | 46° |
| 2026-05-07 16:09 | 57.74837 | 12.10442 | 8773 ft | 290 kts | 46° |
| 2026-05-07 16:09 | 57.76190 | 12.13207 | 8333 ft | 291 kts | 47° |
| 2026-05-07 16:09 | 57.77567 | 12.16023 | 7946 ft | 291 kts | 47° |
| 2026-05-07 16:09 | 57.78930 | 12.18815 | 7612 ft | 289 kts | 47° |
| 2026-05-07 16:10 | 57.80315 | 12.21542 | 7273 ft | 288 kts | 41° |
| 2026-05-07 16:10 | 57.81930 | 12.23643 | 6955 ft | 278 kts | 27° |
| 2026-05-07 16:10 | 57.83632 | 12.25326 | 6420 ft | 275 kts | 27° |
| 2026-05-07 16:10 | 57.85200 | 12.27280 | 6006 ft | 265 kts | 44° |
| 2026-05-07 16:11 | 57.86289 | 12.29918 | 5747 ft | 252 kts | 63° |
| 2026-05-07 16:11 | 57.86864 | 12.33005 | 5309 ft | 256 kts | 81° |
| 2026-05-07 16:11 | 57.86859 | 12.36315 | 5047 ft | 251 kts | 102° |
| 2026-05-07 16:11 | 57.86161 | 12.39240 | 4562 ft | 246 kts | 130° |
| 2026-05-07 16:12 | 57.84791 | 12.41110 | 3946 ft | 248 kts | 163° |
| 2026-05-07 16:12 | 57.83160 | 12.41520 | 3813 ft | 228 kts | 177° |
| 2026-05-07 16:12 | 57.81630 | 12.41569 | 3630 ft | 214 kts | 188° |
| 2026-05-07 16:12 | 57.80230 | 12.40748 | 3374 ft | 208 kts | 207° |
| 2026-05-07 16:13 | 57.78951 | 12.39573 | 3105 ft | 202 kts | 208° |
| 2026-05-07 16:13 | 57.77660 | 12.38382 | 2821 ft | 207 kts | 208° |
| 2026-05-07 16:13 | 57.76375 | 12.37202 | 2567 ft | 204 kts | 208° |
| 2026-05-07 16:13 | 57.75121 | 12.36053 | 2247 ft | 196 kts | 208° |
| 2026-05-07 16:14 | 57.73933 | 12.34968 | 1987 ft | 183 kts | 210° |
| 2026-05-07 16:14 | 57.72867 | 12.33996 | 1769 ft | 160 kts | 210° |
| 2026-05-07 16:14 | 57.71904 | 12.33116 | 1549 ft | 149 kts | 210° |
| 2026-05-07 16:14 | 57.70987 | 12.32277 | 1340 ft | 146 kts | 212° |
| 2026-05-07 16:15 | 57.70092 | 12.31459 | 1126 ft | 141 kts | 211° |
| 2026-05-07 16:15 | 57.69209 | 12.30652 | 912 ft | 141 kts | 212° |
| 2026-05-07 16:15 | 57.68336 | 12.29855 | 727 ft | 139 kts | 211° |
| 2026-05-07 16:15 | 57.67475 | 12.29070 | 533 ft | 137 kts | 211° |
| 2026-05-07 16:16 | 57.66721 | 12.28381 | 512 ft | 97 kts | 206° |
| 2026-05-07 16:16 | 57.66271 | 12.27966 | 510 ft | 46 kts | 206° |
| 2026-05-07 16:16 | 57.66112 | 12.28057 | 509 ft | 19 kts | 114° |
| 2026-05-07 16:16 | 57.66159 | 12.28216 | 510 ft | 10 kts | 26° |
| 2026-05-07 16:17 | 57.66217 | 12.28267 | 510 ft | 9 kts | 25° |
| 2026-05-07 16:17 | 57.66234 | 12.28282 | 510 ft | 0 kts | 25° |
| 2026-05-07 16:19 | 57.66240 | 12.28288 | 510 ft | 5 kts | 26° |
| 2026-05-07 16:19 | 57.66299 | 12.28343 | 511 ft | 14 kts | 27° |
| 2026-05-07 16:19 | 57.66413 | 12.28444 | 511 ft | 22 kts | 24° |
| 2026-05-07 16:19 | 57.66558 | 12.28574 | 512 ft | 24 kts | 25° |
| 2026-05-07 16:20 | 57.66677 | 12.28683 | 512 ft | 17 kts | 26° |
| 2026-05-07 16:20 | 57.66788 | 12.28783 | 513 ft | 17 kts | 26° |
| 2026-05-07 16:20 | 57.66823 | 12.28915 | 516 ft | 11 kts | 113° |
| 2026-05-07 16:20 | 57.66787 | 12.29053 | 516 ft | 12 kts | 115° |
| 2026-05-07 16:21 | 57.66776 | 12.29167 | 516 ft | 8 kts | 50° |
| 2026-05-07 16:21 | 57.66798 | 12.29236 | 516 ft | 7 kts | 110° |
| 2026-05-07 16:21 | 57.66783 | 12.29292 | 516 ft | 4 kts | 116° |
| 2026-05-07 16:21 | 57.66778 | 12.29313 | 516 ft | 0 kts | 116° |